sensor_id;sensor_type;location;lat;lon;timestamp;temperature;humidity
15705;DHT22;7952;48.396;12.806;2024-03-02T00:00:04;9.00;59.70
15705;DHT22;7952;48.396;12.806;2024-03-02T00:02:45;9.00;59.70
15705;DHT22;7952;48.396;12.806;2024-03-02T00:05:12;9.00;59.70
15705;DHT22;7952;48.396;12.806;2024-03-02T00:07:41;9.00;59.70
15705;DHT22;7952;48.396;12.806;2024-03-02T00:10:14;8.90;59.70
15705;DHT22;7952;48.396;12.806;2024-03-02T00:12:42;8.90;60.20
15705;DHT22;7952;48.396;12.806;2024-03-02T00:18:02;8.80;59.60
15705;DHT22;7952;48.396;12.806;2024-03-02T00:20:29;8.80;59.60
15705;DHT22;7952;48.396;12.806;2024-03-02T00:23:03;8.80;59.60
15705;DHT22;7952;48.396;12.806;2024-03-02T00:25:44;8.70;59.60
15705;DHT22;7952;48.396;12.806;2024-03-02T00:28:25;8.70;59.60
15705;DHT22;7952;48.396;12.806;2024-03-02T00:30:59;8.70;59.60
15705;DHT22;7952;48.396;12.806;2024-03-02T00:33:34;8.60;59.60
15705;DHT22;7952;48.396;12.806;2024-03-02T00:36:02;8.60;59.60
15705;DHT22;7952;48.396;12.806;2024-03-02T00:38:29;8.50;59.60
15705;DHT22;7952;48.396;12.806;2024-03-02T00:40:56;8.50;59.60
15705;DHT22;7952;48.396;12.806;2024-03-02T00:43:59;8.50;59.70
15705;DHT22;7952;48.396;12.806;2024-03-02T00:46:31;8.40;59.60
15705;DHT22;7952;48.396;12.806;2024-03-02T00:48:59;8.40;59.70
15705;DHT22;7952;48.396;12.806;2024-03-02T00:51:26;8.30;59.90
15705;DHT22;7952;48.396;12.806;2024-03-02T00:53:53;8.30;59.60
15705;DHT22;7952;48.396;12.806;2024-03-02T00:56:22;8.20;59.60
15705;DHT22;7952;48.396;12.806;2024-03-02T00:58:49;8.20;59.70
15705;DHT22;7952;48.396;12.806;2024-03-02T01:01:15;8.10;59.70
15705;DHT22;7952;48.396;12.806;2024-03-02T01:03:41;8.10;59.70
15705;DHT22;7952;48.396;12.806;2024-03-02T01:06:07;8.10;59.70
15705;DHT22;7952;48.396;12.806;2024-03-02T01:08:36;8.10;59.70
15705;DHT22;7952;48.396;12.806;2024-03-02T01:11:02;8.00;59.70
15705;DHT22;7952;48.396;12.806;2024-03-02T01:13:28;8.00;59.70
15705;DHT22;7952;48.396;12.806;2024-03-02T01:15:54;8.00;59.80
15705;DHT22;7952;48.396;12.806;2024-03-02T01:18:20;8.00;59.80
15705;DHT22;7952;48.396;12.806;2024-03-02T01:20:45;8.00;59.90
15705;DHT22;7952;48.396;12.806;2024-03-02T01:23:11;7.90;59.70
15705;DHT22;7952;48.396;12.806;2024-03-02T01:25:37;7.90;59.70
15705;DHT22;7952;48.396;12.806;2024-03-02T01:28:03;7.90;59.70
15705;DHT22;7952;48.396;12.806;2024-03-02T01:30:29;7.90;59.70
15705;DHT22;7952;48.396;12.806;2024-03-02T01:32:54;7.80;59.70
15705;DHT22;7952;48.396;12.806;2024-03-02T01:35:20;7.80;59.70
15705;DHT22;7952;48.396;12.806;2024-03-02T01:37:45;7.80;59.70
15705;DHT22;7952;48.396;12.806;2024-03-02T01:40:11;7.70;59.60
15705;DHT22;7952;48.396;12.806;2024-03-02T01:42:38;7.70;59.60
15705;DHT22;7952;48.396;12.806;2024-03-02T01:45:05;7.60;59.60
15705;DHT22;7952;48.396;12.806;2024-03-02T01:47:31;7.60;59.60
15705;DHT22;7952;48.396;12.806;2024-03-02T01:49:57;7.50;59.60
15705;DHT22;7952;48.396;12.806;2024-03-02T01:52:23;7.50;59.70
15705;DHT22;7952;48.396;12.806;2024-03-02T01:54:49;7.40;59.70
15705;DHT22;7952;48.396;12.806;2024-03-02T01:57:15;7.40;59.70
15705;DHT22;7952;48.396;12.806;2024-03-02T01:59:41;7.40;59.70
15705;DHT22;7952;48.396;12.806;2024-03-02T02:02:06;7.30;59.70
15705;DHT22;7952;48.396;12.806;2024-03-02T02:04:33;7.30;59.70
15705;DHT22;7952;48.396;12.806;2024-03-02T02:06:59;7.20;59.70
15705;DHT22;7952;48.396;12.806;2024-03-02T02:09:25;7.20;59.80
15705;DHT22;7952;48.396;12.806;2024-03-02T02:11:51;7.20;59.90
15705;DHT22;7952;48.396;12.806;2024-03-02T02:14:16;7.20;59.90
15705;DHT22;7952;48.396;12.806;2024-03-02T02:16:42;7.20;59.90
15705;DHT22;7952;48.396;12.806;2024-03-02T02:19:08;7.20;59.90
15705;DHT22;7952;48.396;12.806;2024-03-02T02:21:33;7.20;59.90
15705;DHT22;7952;48.396;12.806;2024-03-02T02:23:59;7.20;59.80
15705;DHT22;7952;48.396;12.806;2024-03-02T02:26:24;7.20;59.80
15705;DHT22;7952;48.396;12.806;2024-03-02T02:28:50;7.10;59.70
15705;DHT22;7952;48.396;12.806;2024-03-02T02:31:16;7.10;59.70
15705;DHT22;7952;48.396;12.806;2024-03-02T02:33:42;7.10;59.80
15705;DHT22;7952;48.396;12.806;2024-03-02T02:36:08;7.00;59.70
15705;DHT22;7952;48.396;12.806;2024-03-02T02:38:38;7.00;59.70
15705;DHT22;7952;48.396;12.806;2024-03-02T02:41:05;7.00;59.70
15705;DHT22;7952;48.396;12.806;2024-03-02T02:43:30;6.90;59.60
15705;DHT22;7952;48.396;12.806;2024-03-02T02:45:56;6.90;59.70
15705;DHT22;7952;48.396;12.806;2024-03-02T02:48:21;6.80;59.70
15705;DHT22;7952;48.396;12.806;2024-03-02T02:50:47;6.80;59.70
15705;DHT22;7952;48.396;12.806;2024-03-02T02:53:13;6.80;59.70
15705;DHT22;7952;48.396;12.806;2024-03-02T02:55:39;6.80;59.80
15705;DHT22;7952;48.396;12.806;2024-03-02T02:58:11;6.70;59.70
15705;DHT22;7952;48.396;12.806;2024-03-02T03:00:36;6.70;59.80
15705;DHT22;7952;48.396;12.806;2024-03-02T03:03:02;6.70;59.80
15705;DHT22;7952;48.396;12.806;2024-03-02T03:05:28;6.70;59.90
15705;DHT22;7952;48.396;12.806;2024-03-02T03:07:53;6.70;60.00
15705;DHT22;7952;48.396;12.806;2024-03-02T03:10:19;6.70;60.00
15705;DHT22;7952;48.396;12.806;2024-03-02T03:12:47;6.70;60.00
15705;DHT22;7952;48.396;12.806;2024-03-02T03:15:13;6.70;60.00
15705;DHT22;7952;48.396;12.806;2024-03-02T03:17:38;6.70;60.00
15705;DHT22;7952;48.396;12.806;2024-03-02T03:20:04;6.80;60.00
15705;DHT22;7952;48.396;12.806;2024-03-02T03:22:31;6.80;60.00
15705;DHT22;7952;48.396;12.806;2024-03-02T03:25:00;6.80;60.00
15705;DHT22;7952;48.396;12.806;2024-03-02T03:27:26;6.80;60.00
15705;DHT22;7952;48.396;12.806;2024-03-02T03:29:52;6.80;60.00
15705;DHT22;7952;48.396;12.806;2024-03-02T03:32:17;6.80;60.00
15705;DHT22;7952;48.396;12.806;2024-03-02T03:34:43;6.80;60.00
15705;DHT22;7952;48.396;12.806;2024-03-02T03:37:08;6.80;60.00
15705;DHT22;7952;48.396;12.806;2024-03-02T03:39:35;6.80;60.00
15705;DHT22;7952;48.396;12.806;2024-03-02T03:42:03;6.80;59.90
15705;DHT22;7952;48.396;12.806;2024-03-02T03:44:29;6.80;59.90
15705;DHT22;7952;48.396;12.806;2024-03-02T03:46:55;6.80;59.90
15705;DHT22;7952;48.396;12.806;2024-03-02T03:49:20;6.90;60.00
15705;DHT22;7952;48.396;12.806;2024-03-02T03:51:46;6.90;60.00
15705;DHT22;7952;48.396;12.806;2024-03-02T03:54:11;6.90;60.00
15705;DHT22;7952;48.396;12.806;2024-03-02T03:56:37;6.90;60.00
15705;DHT22;7952;48.396;12.806;2024-03-02T03:59:03;6.90;59.90
15705;DHT22;7952;48.396;12.806;2024-03-02T04:01:30;6.90;59.90
15705;DHT22;7952;48.396;12.806;2024-03-02T04:03:57;6.90;59.90
15705;DHT22;7952;48.396;12.806;2024-03-02T04:06:22;6.90;59.90
15705;DHT22;7952;48.396;12.806;2024-03-02T04:08:48;6.90;59.90
15705;DHT22;7952;48.396;12.806;2024-03-02T04:11:14;6.90;59.80
15705;DHT22;7952;48.396;12.806;2024-03-02T04:13:40;6.90;59.90
15705;DHT22;7952;48.396;12.806;2024-03-02T04:16:05;6.90;59.90
15705;DHT22;7952;48.396;12.806;2024-03-02T04:18:31;6.90;59.90
15705;DHT22;7952;48.396;12.806;2024-03-02T04:20:57;6.90;59.80
15705;DHT22;7952;48.396;12.806;2024-03-02T04:23:25;6.80;59.80
15705;DHT22;7952;48.396;12.806;2024-03-02T04:25:50;6.80;59.80
15705;DHT22;7952;48.396;12.806;2024-03-02T04:28:16;6.80;59.90
15705;DHT22;7952;48.396;12.806;2024-03-02T04:30:42;6.80;59.90
15705;DHT22;7952;48.396;12.806;2024-03-02T04:33:08;6.80;59.90
15705;DHT22;7952;48.396;12.806;2024-03-02T04:35:38;6.80;59.90
15705;DHT22;7952;48.396;12.806;2024-03-02T04:38:03;6.80;59.90
15705;DHT22;7952;48.396;12.806;2024-03-02T04:40:29;6.70;59.80
15705;DHT22;7952;48.396;12.806;2024-03-02T04:42:55;6.70;59.70
15705;DHT22;7952;48.396;12.806;2024-03-02T04:45:20;6.70;59.80
15705;DHT22;7952;48.396;12.806;2024-03-02T04:47:46;6.70;59.80
15705;DHT22;7952;48.396;12.806;2024-03-02T04:50:11;6.70;59.90
15705;DHT22;7952;48.396;12.806;2024-03-02T04:52:37;6.70;59.90
15705;DHT22;7952;48.396;12.806;2024-03-02T04:55:03;6.60;59.80
15705;DHT22;7952;48.396;12.806;2024-03-02T04:58:07;6.70;60.00
15705;DHT22;7952;48.396;12.806;2024-03-02T05:00:33;6.70;60.00
15705;DHT22;7952;48.396;12.806;2024-03-02T05:02:59;6.70;60.00
15705;DHT22;7952;48.396;12.806;2024-03-02T05:05:24;6.70;60.00
15705;DHT22;7952;48.396;12.806;2024-03-02T05:07:50;6.70;59.90
15705;DHT22;7952;48.396;12.806;2024-03-02T05:10:15;6.70;59.90
15705;DHT22;7952;48.396;12.806;2024-03-02T05:12:41;6.70;60.00
15705;DHT22;7952;48.396;12.806;2024-03-02T05:15:13;6.70;60.00
15705;DHT22;7952;48.396;12.806;2024-03-02T05:17:40;6.70;59.90
15705;DHT22;7952;48.396;12.806;2024-03-02T05:20:06;6.70;59.90
15705;DHT22;7952;48.396;12.806;2024-03-02T05:22:33;6.70;59.90
15705;DHT22;7952;48.396;12.806;2024-03-02T05:24:59;6.70;60.00
15705;DHT22;7952;48.396;12.806;2024-03-02T05:27:26;6.70;60.00
15705;DHT22;7952;48.396;12.806;2024-03-02T05:29:52;6.70;60.00
15705;DHT22;7952;48.396;12.806;2024-03-02T05:32:17;6.70;60.00
15705;DHT22;7952;48.396;12.806;2024-03-02T05:34:43;6.70;60.00
15705;DHT22;7952;48.396;12.806;2024-03-02T05:37:08;6.70;60.00
15705;DHT22;7952;48.396;12.806;2024-03-02T05:39:34;6.80;60.00
15705;DHT22;7952;48.396;12.806;2024-03-02T05:41:59;6.80;60.00
15705;DHT22;7952;48.396;12.806;2024-03-02T05:44:25;6.80;60.00
15705;DHT22;7952;48.396;12.806;2024-03-02T05:46:50;6.80;60.00
15705;DHT22;7952;48.396;12.806;2024-03-02T05:49:16;6.80;59.90
15705;DHT22;7952;48.396;12.806;2024-03-02T05:51:41;6.90;60.00
15705;DHT22;7952;48.396;12.806;2024-03-02T05:54:07;6.80;59.90
15705;DHT22;7952;48.396;12.806;2024-03-02T05:56:33;6.80;59.90
15705;DHT22;7952;48.396;12.806;2024-03-02T05:58:58;6.80;59.90
15705;DHT22;7952;48.396;12.806;2024-03-02T06:01:43;6.80;59.90
15705;DHT22;7952;48.396;12.806;2024-03-02T06:04:09;6.80;60.00
15705;DHT22;7952;48.396;12.806;2024-03-02T06:06:36;6.80;60.00
15705;DHT22;7952;48.396;12.806;2024-03-02T06:09:02;6.80;60.00
15705;DHT22;7952;48.396;12.806;2024-03-02T06:11:36;6.80;60.00
15705;DHT22;7952;48.396;12.806;2024-03-02T06:14:05;6.90;60.10
15705;DHT22;7952;48.396;12.806;2024-03-02T06:16:31;6.90;60.70
15705;DHT22;7952;48.396;12.806;2024-03-02T06:18:57;6.90;60.10
15705;DHT22;7952;48.396;12.806;2024-03-02T06:21:26;6.90;60.10
15705;DHT22;7952;48.396;12.806;2024-03-02T06:23:51;6.90;60.10
15705;DHT22;7952;48.396;12.806;2024-03-02T06:26:18;6.90;60.10
15705;DHT22;7952;48.396;12.806;2024-03-02T06:28:43;6.90;60.10
15705;DHT22;7952;48.396;12.806;2024-03-02T06:31:09;7.00;60.30
15705;DHT22;7952;48.396;12.806;2024-03-02T06:33:35;7.00;60.30
15705;DHT22;7952;48.396;12.806;2024-03-02T06:36:00;7.00;60.30
15705;DHT22;7952;48.396;12.806;2024-03-02T06:38:26;7.00;60.30
15705;DHT22;7952;48.396;12.806;2024-03-02T06:40:52;7.10;60.40
15705;DHT22;7952;48.396;12.806;2024-03-02T06:43:17;7.10;60.40
15705;DHT22;7952;48.396;12.806;2024-03-02T06:45:43;7.10;60.40
15705;DHT22;7952;48.396;12.806;2024-03-02T06:48:08;7.20;60.40
15705;DHT22;7952;48.396;12.806;2024-03-02T06:50:34;7.30;60.50
15705;DHT22;7952;48.396;12.806;2024-03-02T06:53:00;7.20;60.40
15705;DHT22;7952;48.396;12.806;2024-03-02T06:55:25;7.20;60.30
15705;DHT22;7952;48.396;12.806;2024-03-02T06:57:51;7.30;60.40
15705;DHT22;7952;48.396;12.806;2024-03-02T07:00:17;7.30;60.40
15705;DHT22;7952;48.396;12.806;2024-03-02T07:02:44;7.30;60.40
15705;DHT22;7952;48.396;12.806;2024-03-02T07:05:10;7.40;60.50
15705;DHT22;7952;48.396;12.806;2024-03-02T07:07:35;7.40;60.50
15705;DHT22;7952;48.396;12.806;2024-03-02T07:10:05;7.40;60.50
15705;DHT22;7952;48.396;12.806;2024-03-02T07:12:30;7.50;60.60
15705;DHT22;7952;48.396;12.806;2024-03-02T07:14:57;7.50;60.60
15705;DHT22;7952;48.396;12.806;2024-03-02T07:17:28;7.60;60.70
15705;DHT22;7952;48.396;12.806;2024-03-02T07:19:54;7.60;60.70
15705;DHT22;7952;48.396;12.806;2024-03-02T07:22:20;7.60;60.60
15705;DHT22;7952;48.396;12.806;2024-03-02T07:24:45;7.70;60.60
15705;DHT22;7952;48.396;12.806;2024-03-02T07:27:15;7.70;60.70
15705;DHT22;7952;48.396;12.806;2024-03-02T07:29:40;7.70;60.60
15705;DHT22;7952;48.396;12.806;2024-03-02T07:32:07;7.80;60.70
15705;DHT22;7952;48.396;12.806;2024-03-02T07:34:33;7.80;60.70
15705;DHT22;7952;48.396;12.806;2024-03-02T07:36:59;7.90;60.80
15705;DHT22;7952;48.396;12.806;2024-03-02T07:39:24;7.90;60.70
15705;DHT22;7952;48.396;12.806;2024-03-02T07:41:50;8.00;60.80
15705;DHT22;7952;48.396;12.806;2024-03-02T07:44:16;8.00;60.70
15705;DHT22;7952;48.396;12.806;2024-03-02T07:46:44;8.00;60.70
15705;DHT22;7952;48.396;12.806;2024-03-02T07:49:10;8.10;60.80
15705;DHT22;7952;48.396;12.806;2024-03-02T07:51:36;8.10;60.80
15705;DHT22;7952;48.396;12.806;2024-03-02T07:54:04;8.10;60.70
15705;DHT22;7952;48.396;12.806;2024-03-02T07:56:29;8.10;60.60
15705;DHT22;7952;48.396;12.806;2024-03-02T07:58:55;8.10;60.70
15705;DHT22;7952;48.396;12.806;2024-03-02T08:01:22;8.10;60.70
15705;DHT22;7952;48.396;12.806;2024-03-02T08:03:48;8.20;60.80
15705;DHT22;7952;48.396;12.806;2024-03-02T08:06:16;8.10;60.70
15705;DHT22;7952;48.396;12.806;2024-03-02T08:08:42;8.10;60.80
15705;DHT22;7952;48.396;12.806;2024-03-02T08:11:07;8.10;60.80
15705;DHT22;7952;48.396;12.806;2024-03-02T08:13:33;8.10;60.90
15705;DHT22;7952;48.396;12.806;2024-03-02T08:15:59;8.10;61.00
15705;DHT22;7952;48.396;12.806;2024-03-02T08:18:25;8.20;61.20
15705;DHT22;7952;48.396;12.806;2024-03-02T08:20:50;8.10;61.20
15705;DHT22;7952;48.396;12.806;2024-03-02T08:23:17;8.10;61.20
15705;DHT22;7952;48.396;12.806;2024-03-02T08:25:43;8.10;61.20
15705;DHT22;7952;48.396;12.806;2024-03-02T08:28:08;8.20;61.30
15705;DHT22;7952;48.396;12.806;2024-03-02T08:30:34;8.20;61.30
15705;DHT22;7952;48.396;12.806;2024-03-02T08:33:00;8.20;61.30
15705;DHT22;7952;48.396;12.806;2024-03-02T08:35:25;8.20;61.30
15705;DHT22;7952;48.396;12.806;2024-03-02T08:37:51;8.30;61.50
15705;DHT22;7952;48.396;12.806;2024-03-02T08:40:17;8.30;61.50
15705;DHT22;7952;48.396;12.806;2024-03-02T08:42:43;8.30;61.50
15705;DHT22;7952;48.396;12.806;2024-03-02T08:45:09;8.30;61.60
15705;DHT22;7952;48.396;12.806;2024-03-02T08:47:35;8.40;61.60
15705;DHT22;7952;48.396;12.806;2024-03-02T08:50:00;8.40;61.70
15705;DHT22;7952;48.396;12.806;2024-03-02T08:52:26;8.50;61.80
15705;DHT22;7952;48.396;12.806;2024-03-02T08:54:52;8.50;61.70
15705;DHT22;7952;48.396;12.806;2024-03-02T08:57:18;8.60;61.80
15705;DHT22;7952;48.396;12.806;2024-03-02T08:59:44;8.70;61.90
15705;DHT22;7952;48.396;12.806;2024-03-02T09:02:10;8.70;61.90
15705;DHT22;7952;48.396;12.806;2024-03-02T09:04:35;8.70;61.80
15705;DHT22;7952;48.396;12.806;2024-03-02T09:07:01;8.80;61.90
15705;DHT22;7952;48.396;12.806;2024-03-02T09:09:27;8.90;62.00
15705;DHT22;7952;48.396;12.806;2024-03-02T09:11:52;8.90;61.90
15705;DHT22;7952;48.396;12.806;2024-03-02T09:14:20;9.00;62.00
15705;DHT22;7952;48.396;12.806;2024-03-02T09:16:46;9.00;61.90
15705;DHT22;7952;48.396;12.806;2024-03-02T09:19:12;9.10;61.90
15705;DHT22;7952;48.396;12.806;2024-03-02T09:21:37;9.10;61.90
15705;DHT22;7952;48.396;12.806;2024-03-02T09:24:03;9.20;61.90
15705;DHT22;7952;48.396;12.806;2024-03-02T09:26:29;9.30;62.10
15705;DHT22;7952;48.396;12.806;2024-03-02T09:28:54;9.30;62.10
15705;DHT22;7952;48.396;12.806;2024-03-02T09:31:20;9.40;62.10
15705;DHT22;7952;48.396;12.806;2024-03-02T09:33:46;9.40;62.00
15705;DHT22;7952;48.396;12.806;2024-03-02T09:36:22;9.50;62.10
15705;DHT22;7952;48.396;12.806;2024-03-02T09:38:48;9.50;62.10
15705;DHT22;7952;48.396;12.806;2024-03-02T09:41:14;9.60;62.10
15705;DHT22;7952;48.396;12.806;2024-03-02T09:43:40;9.70;62.10
15705;DHT22;7952;48.396;12.806;2024-03-02T09:46:10;9.70;62.20
15705;DHT22;7952;48.396;12.806;2024-03-02T09:48:36;9.90;62.30
15705;DHT22;7952;48.396;12.806;2024-03-02T09:51:01;9.90;62.10
15705;DHT22;7952;48.396;12.806;2024-03-02T09:53:32;10.00;61.10
15705;DHT22;7952;48.396;12.806;2024-03-02T09:55:59;10.10;61.70
15705;DHT22;7952;48.396;12.806;2024-03-02T09:58:25;10.10;61.00
15705;DHT22;7952;48.396;12.806;2024-03-02T10:00:50;10.20;61.10
15705;DHT22;7952;48.396;12.806;2024-03-02T10:03:18;10.30;61.20
15705;DHT22;7952;48.396;12.806;2024-03-02T10:05:44;10.40;61.10
15705;DHT22;7952;48.396;12.806;2024-03-02T10:08:10;10.50;61.20
15705;DHT22;7952;48.396;12.806;2024-03-02T10:10:40;10.50;61.00
15705;DHT22;7952;48.396;12.806;2024-03-02T10:16:13;10.70;60.90
15705;DHT22;7952;48.396;12.806;2024-03-02T10:21:35;10.90;61.00
15705;DHT22;7952;48.396;12.806;2024-03-02T10:24:10;11.00;61.00
15705;DHT22;7952;48.396;12.806;2024-03-02T10:26:36;11.10;60.90
15705;DHT22;7952;48.396;12.806;2024-03-02T10:29:03;11.20;60.90
15705;DHT22;7952;48.396;12.806;2024-03-02T10:31:28;11.30;61.00
15705;DHT22;7952;48.396;12.806;2024-03-02T10:33:55;11.40;61.00
15705;DHT22;7952;48.396;12.806;2024-03-02T10:36:20;11.50;60.90
15705;DHT22;7952;48.396;12.806;2024-03-02T10:38:47;11.60;60.80
15705;DHT22;7952;48.396;12.806;2024-03-02T10:41:23;11.70;60.70
15705;DHT22;7952;48.396;12.806;2024-03-02T10:43:51;11.80;60.70
15705;DHT22;7952;48.396;12.806;2024-03-02T10:46:19;11.90;60.80
15705;DHT22;7952;48.396;12.806;2024-03-02T10:48:46;12.00;60.70
15705;DHT22;7952;48.396;12.806;2024-03-02T10:51:12;12.10;60.40
15705;DHT22;7952;48.396;12.806;2024-03-02T10:53:38;12.10;60.30
15705;DHT22;7952;48.396;12.806;2024-03-02T10:56:27;12.00;60.10
15705;DHT22;7952;48.396;12.806;2024-03-02T10:58:59;12.10;60.30
15705;DHT22;7952;48.396;12.806;2024-03-02T11:01:39;12.10;60.50
15705;DHT22;7952;48.396;12.806;2024-03-02T11:04:09;12.20;60.70
15705;DHT22;7952;48.396;12.806;2024-03-02T11:12:59;12.40;60.20
15705;DHT22;7952;48.396;12.806;2024-03-02T11:22:26;12.50;60.50
15705;DHT22;7952;48.396;12.806;2024-03-02T11:24:55;12.60;60.40
15705;DHT22;7952;48.396;12.806;2024-03-02T11:37:38;12.70;60.90
15705;DHT22;7952;48.396;12.806;2024-03-02T11:40:14;12.70;60.40
15705;DHT22;7952;48.396;12.806;2024-03-02T11:42:40;12.70;60.30
15705;DHT22;7952;48.396;12.806;2024-03-02T11:45:28;12.70;60.20
15705;DHT22;7952;48.396;12.806;2024-03-02T11:48:00;12.70;60.20
15705;DHT22;7952;48.396;12.806;2024-03-02T11:54:11;12.60;60.20
15705;DHT22;7952;48.396;12.806;2024-03-02T11:57:25;12.60;60.20
15705;DHT22;7952;48.396;12.806;2024-03-02T12:00:20;12.60;60.30
15705;DHT22;7952;48.396;12.806;2024-03-02T12:02:47;12.60;60.40
15705;DHT22;7952;48.396;12.806;2024-03-02T12:08:52;12.80;60.70
15705;DHT22;7952;48.396;12.806;2024-03-02T12:29:07;13.40;60.40
15705;DHT22;7952;48.396;12.806;2024-03-02T12:32:23;13.40;60.20
15705;DHT22;7952;48.396;12.806;2024-03-02T12:49:34;13.30;60.60
15705;DHT22;7952;48.396;12.806;2024-03-02T13:02:20;13.50;60.50
15705;DHT22;7952;48.396;12.806;2024-03-02T13:45:32;14.00;59.80
15705;DHT22;7952;48.396;12.806;2024-03-02T13:48:32;13.90;59.50
15705;DHT22;7952;48.396;12.806;2024-03-02T14:05:00;14.00;59.60
15705;DHT22;7952;48.396;12.806;2024-03-02T14:07:39;14.00;59.40
15705;DHT22;7952;48.396;12.806;2024-03-02T14:10:12;14.10;59.40
15705;DHT22;7952;48.396;12.806;2024-03-02T14:23:19;14.20;59.10
15705;DHT22;7952;48.396;12.806;2024-03-02T14:29:18;14.20;59.00
15705;DHT22;7952;48.396;12.806;2024-03-02T14:39:13;14.10;58.80
15705;DHT22;7952;48.396;12.806;2024-03-02T14:45:24;14.10;58.80
15705;DHT22;7952;48.396;12.806;2024-03-02T14:47:55;14.10;58.80
15705;DHT22;7952;48.396;12.806;2024-03-02T14:50:38;14.10;58.80
15705;DHT22;7952;48.396;12.806;2024-03-02T14:53:35;14.10;58.80
15705;DHT22;7952;48.396;12.806;2024-03-02T15:15:20;13.90;58.20
15705;DHT22;7952;48.396;12.806;2024-03-02T15:22:20;13.90;58.30
15705;DHT22;7952;48.396;12.806;2024-03-02T16:41:38;13.00;58.00
15705;DHT22;7952;48.396;12.806;2024-03-02T16:47:29;12.80;58.00
15705;DHT22;7952;48.396;12.806;2024-03-02T16:49:55;12.80;58.70
15705;DHT22;7952;48.396;12.806;2024-03-02T16:56:04;12.60;58.10
15705;DHT22;7952;48.396;12.806;2024-03-02T16:58:40;12.50;58.20
15705;DHT22;7952;48.396;12.806;2024-03-02T17:01:15;12.50;58.20
15705;DHT22;7952;48.396;12.806;2024-03-02T17:07:09;12.30;58.20
15705;DHT22;7952;48.396;12.806;2024-03-02T17:09:35;12.30;58.30
15705;DHT22;7952;48.396;12.806;2024-03-02T17:12:01;12.20;58.30
15705;DHT22;7952;48.396;12.806;2024-03-02T17:14:26;12.20;58.30
15705;DHT22;7952;48.396;12.806;2024-03-02T17:16:52;12.10;58.30
15705;DHT22;7952;48.396;12.806;2024-03-02T17:19:18;12.10;58.40
15705;DHT22;7952;48.396;12.806;2024-03-02T17:21:43;12.00;58.30
15705;DHT22;7952;48.396;12.806;2024-03-02T17:24:09;12.00;58.40
15705;DHT22;7952;48.396;12.806;2024-03-02T17:26:35;11.90;58.30
15705;DHT22;7952;48.396;12.806;2024-03-02T17:29:11;11.90;58.40
15705;DHT22;7952;48.396;12.806;2024-03-02T17:31:40;11.80;58.40
15705;DHT22;7952;48.396;12.806;2024-03-02T17:34:06;11.80;58.40
15705;DHT22;7952;48.396;12.806;2024-03-02T17:36:31;11.70;58.40
15705;DHT22;7952;48.396;12.806;2024-03-02T17:38:57;11.70;58.40
15705;DHT22;7952;48.396;12.806;2024-03-02T17:41:23;11.60;58.40
15705;DHT22;7952;48.396;12.806;2024-03-02T17:43:49;11.60;58.40
15705;DHT22;7952;48.396;12.806;2024-03-02T17:46:14;11.50;58.40
15705;DHT22;7952;48.396;12.806;2024-03-02T17:48:40;11.50;58.40
15705;DHT22;7952;48.396;12.806;2024-03-02T17:51:07;11.50;58.50
15705;DHT22;7952;48.396;12.806;2024-03-02T17:53:35;11.40;58.40
15705;DHT22;7952;48.396;12.806;2024-03-02T17:56:01;11.40;58.50
15705;DHT22;7952;48.396;12.806;2024-03-02T17:58:27;11.30;58.40
15705;DHT22;7952;48.396;12.806;2024-03-02T18:00:52;11.40;58.50
15705;DHT22;7952;48.396;12.806;2024-03-02T18:03:18;11.30;58.40
15705;DHT22;7952;48.396;12.806;2024-03-02T18:05:44;11.30;58.50
15705;DHT22;7952;48.396;12.806;2024-03-02T18:08:16;11.30;58.50
15705;DHT22;7952;48.396;12.806;2024-03-02T18:10:44;11.20;58.40
15705;DHT22;7952;48.396;12.806;2024-03-02T18:13:16;11.20;58.40
15705;DHT22;7952;48.396;12.806;2024-03-02T18:15:45;11.20;59.00
15705;DHT22;7952;48.396;12.806;2024-03-02T18:18:14;11.10;58.40
15705;DHT22;7952;48.396;12.806;2024-03-02T18:20:43;11.10;58.40
15705;DHT22;7952;48.396;12.806;2024-03-02T18:23:09;11.10;58.50
15705;DHT22;7952;48.396;12.806;2024-03-02T18:25:35;11.00;58.50
15705;DHT22;7952;48.396;12.806;2024-03-02T18:28:18;11.00;58.50
15705;DHT22;7952;48.396;12.806;2024-03-02T18:30:43;10.90;58.50
15705;DHT22;7952;48.396;12.806;2024-03-02T18:33:09;10.90;58.50
15705;DHT22;7952;48.396;12.806;2024-03-02T18:35:54;10.90;58.60
15705;DHT22;7952;48.396;12.806;2024-03-02T18:38:20;10.80;58.50
15705;DHT22;7952;48.396;12.806;2024-03-02T18:40:52;10.80;58.60
15705;DHT22;7952;48.396;12.806;2024-03-02T18:43:38;10.80;58.60
15705;DHT22;7952;48.396;12.806;2024-03-02T18:46:06;10.80;58.60
15705;DHT22;7952;48.396;12.806;2024-03-02T18:48:36;10.80;58.70
15705;DHT22;7952;48.396;12.806;2024-03-02T18:51:08;10.70;58.60
15705;DHT22;7952;48.396;12.806;2024-03-02T18:53:44;10.70;58.70
15705;DHT22;7952;48.396;12.806;2024-03-02T18:56:48;10.70;58.80
15705;DHT22;7952;48.396;12.806;2024-03-02T18:59:14;10.60;59.30
15705;DHT22;7952;48.396;12.806;2024-03-02T19:01:40;10.60;58.80
15705;DHT22;7952;48.396;12.806;2024-03-02T19:04:05;10.60;58.80
15705;DHT22;7952;48.396;12.806;2024-03-02T19:06:41;10.60;58.90
15705;DHT22;7952;48.396;12.806;2024-03-02T19:09:10;10.60;58.90
15705;DHT22;7952;48.396;12.806;2024-03-02T19:11:36;10.60;58.90
15705;DHT22;7952;48.396;12.806;2024-03-02T19:14:03;10.60;59.10
15705;DHT22;7952;48.396;12.806;2024-03-02T19:16:28;10.60;59.10
15705;DHT22;7952;48.396;12.806;2024-03-02T19:18:57;10.60;59.20
15705;DHT22;7952;48.396;12.806;2024-03-02T19:21:23;10.70;59.20
15705;DHT22;7952;48.396;12.806;2024-03-02T19:23:49;10.70;59.20
15705;DHT22;7952;48.396;12.806;2024-03-02T19:26:15;10.70;59.20
15705;DHT22;7952;48.396;12.806;2024-03-02T19:28:44;10.70;59.30
15705;DHT22;7952;48.396;12.806;2024-03-02T19:31:10;10.70;59.30
15705;DHT22;7952;48.396;12.806;2024-03-02T19:33:48;10.70;59.30
15705;DHT22;7952;48.396;12.806;2024-03-02T19:36:14;10.70;59.30
15705;DHT22;7952;48.396;12.806;2024-03-02T19:38:40;10.80;59.40
15705;DHT22;7952;48.396;12.806;2024-03-02T19:41:53;10.80;59.40
15705;DHT22;7952;48.396;12.806;2024-03-02T19:44:22;10.80;59.40
15705;DHT22;7952;48.396;12.806;2024-03-02T19:46:51;10.80;59.50
15705;DHT22;7952;48.396;12.806;2024-03-02T19:49:19;10.80;59.50
15705;DHT22;7952;48.396;12.806;2024-03-02T19:51:46;10.80;59.50
15705;DHT22;7952;48.396;12.806;2024-03-02T19:54:12;10.80;59.50
15705;DHT22;7952;48.396;12.806;2024-03-02T19:56:40;10.80;59.60
15705;DHT22;7952;48.396;12.806;2024-03-02T19:59:42;10.80;59.60
15705;DHT22;7952;48.396;12.806;2024-03-02T20:02:12;10.80;59.60
15705;DHT22;7952;48.396;12.806;2024-03-02T20:04:38;10.80;59.60
15705;DHT22;7952;48.396;12.806;2024-03-02T20:07:07;10.90;59.70
15705;DHT22;7952;48.396;12.806;2024-03-02T20:12:49;10.90;59.80
15705;DHT22;7952;48.396;12.806;2024-03-02T20:18:28;10.90;59.80
15705;DHT22;7952;48.396;12.806;2024-03-02T20:20:54;10.90;59.90
15705;DHT22;7952;48.396;12.806;2024-03-02T20:23:20;10.90;59.90
15705;DHT22;7952;48.396;12.806;2024-03-02T20:26:07;10.80;59.90